createdAt,value
2018-09-06T00:00:59.255Z,100946.55
2018-09-06T00:03:27.359Z,100938.41
2018-09-06T00:05:55.405Z,100937.39
2018-09-06T00:08:24.036Z,100945.13
2018-09-06T00:10:52.151Z,100952.16
2018-09-06T00:13:20.348Z,100949.97
2018-09-06T00:15:50.639Z,100946.48
2018-09-06T00:18:18.664Z,100942.47
2018-09-06T00:20:59.460Z,100944.91
2018-09-06T00:23:27.591Z,100944.52
2018-09-06T00:25:55.668Z,100940.83
2018-09-06T00:28:23.712Z,100937.84
2018-09-06T00:30:51.909Z,100939.45
2018-09-06T00:33:20.119Z,100930.50
2018-09-06T00:35:48.255Z,100924.97
2018-09-06T00:38:16.479Z,100922.95
2018-09-06T00:40:44.702Z,100925.54
2018-09-06T00:43:12.780Z,100928.33
2018-09-06T00:45:41.031Z,100925.48
2018-09-06T00:48:09.063Z,100918.81
2018-09-06T00:50:37.091Z,100915.63
2018-09-06T00:53:05.320Z,100915.90
2018-09-06T00:55:33.648Z,100914.87
2018-09-06T00:58:01.708Z,100914.97
2018-09-06T01:00:29.740Z,100913.22
2018-09-06T01:02:57.780Z,100911.00
2018-09-06T01:05:44.760Z,100908.66
2018-09-06T01:08:12.844Z,100905.47
2018-09-06T01:10:41.017Z,100907.42
2018-09-06T01:13:09.036Z,100902.88
2018-09-06T01:15:37.072Z,100897.75
2018-09-06T01:18:05.360Z,100895.41
2018-09-06T01:20:33.517Z,100900.47
2018-09-06T01:23:01.563Z,100906.38
2018-09-06T01:25:35.156Z,100901.18
2018-09-06T01:28:03.433Z,100903.39
2018-09-06T01:30:31.473Z,100900.20
2018-09-06T01:32:59.992Z,100901.78
2018-09-06T01:35:28.077Z,100896.25
2018-09-06T01:37:56.120Z,100892.30
2018-09-06T01:40:24.203Z,100896.19
2018-09-06T01:42:52.252Z,100900.44
2018-09-06T01:45:20.281Z,100897.87
2018-09-06T01:47:48.296Z,100897.98
2018-09-06T01:50:16.788Z,100896.59
2018-09-06T01:52:45.051Z,100898.35
2018-09-06T01:55:13.080Z,100890.14
2018-09-06T01:57:41.111Z,100902.70
2018-09-06T02:00:09.308Z,100912.86
2018-09-06T02:02:37.343Z,100914.41
2018-09-06T02:05:05.673Z,100914.99
2018-09-06T02:07:40.251Z,100913.11
2018-09-06T02:10:08.481Z,100900.05
2018-09-06T02:12:36.525Z,100891.10
2018-09-06T02:15:05.052Z,100918.39
2018-09-06T02:17:33.431Z,100903.66
2018-09-06T02:20:01.663Z,100889.42
2018-09-06T02:22:29.683Z,100899.42
2018-09-06T02:24:57.732Z,100899.59
2018-09-06T02:27:25.776Z,100893.52
2018-09-06T02:29:54.221Z,100875.67
2018-09-06T02:32:22.305Z,100879.97
2018-09-06T02:34:50.373Z,100884.56
2018-09-06T02:37:18.428Z,100881.92
2018-09-06T02:39:46.530Z,100870.42
2018-09-06T02:42:14.561Z,100878.75
2018-09-06T02:44:42.670Z,100877.17
2018-09-06T02:47:10.692Z,100871.98
2018-09-06T02:49:44.022Z,100864.30
2018-09-06T02:52:12.134Z,100864.41
2018-09-06T02:54:40.351Z,100867.27
2018-09-06T02:57:08.555Z,100861.73
2018-09-06T02:59:36.628Z,100859.91
2018-09-06T03:02:04.731Z,100855.39
2018-09-06T03:04:32.791Z,100853.31
2018-09-06T03:07:00.819Z,100845.29
2018-09-06T03:09:28.896Z,100842.14
2018-09-06T03:11:59.923Z,100839.88
2018-09-06T03:14:28.127Z,100840.20
2018-09-06T03:16:56.495Z,100833.97
2018-09-06T03:19:24.522Z,100827.86
2018-09-06T03:21:52.594Z,100830.49
2018-09-06T03:24:20.624Z,100819.72
2018-09-06T03:26:48.826Z,100822.36
2018-09-06T03:29:16.861Z,100825.62
2018-09-06T03:31:44.892Z,100824.30
2018-09-06T03:34:12.937Z,100827.45
2018-09-06T03:36:41.063Z,100825.77
2018-09-06T03:39:09.510Z,100823.49
2018-09-06T03:41:38.056Z,100809.61
2018-09-06T03:44:06.125Z,100817.30
2018-09-06T03:46:34.430Z,100809.03
2018-09-06T03:49:02.462Z,100811.19
2018-09-06T03:51:30.493Z,100814.59
2018-09-06T03:53:58.545Z,100815.98
2018-09-06T03:56:26.580Z,100816.02
2018-09-06T03:58:54.800Z,100817.14
2018-09-06T04:01:22.834Z,100816.44
2018-09-06T04:03:50.872Z,100815.45
2018-09-06T04:06:18.898Z,100812.97
2018-09-06T04:08:47.500Z,100809.97
2018-09-06T04:11:15.544Z,100809.77
2018-09-06T04:13:43.597Z,100810.25
2018-09-06T04:16:11.642Z,100812.05
2018-09-06T04:18:40.164Z,100815.52
2018-09-06T04:21:08.204Z,100813.36
2018-09-06T04:23:36.544Z,100820.66
2018-09-06T04:26:20.952Z,100821.13
2018-09-06T04:28:48.980Z,100823.15
2018-09-06T04:31:17.016Z,100828.34
2018-09-06T04:33:45.196Z,100821.89
2018-09-06T04:36:13.292Z,100824.38
2018-09-06T04:38:41.575Z,100822.95
2018-09-06T04:41:09.751Z,100826.63
2018-09-06T04:43:37.817Z,100821.09
2018-09-06T04:46:05.940Z,100824.43
2018-09-06T04:48:33.961Z,100822.97
2018-09-06T04:51:01.991Z,100828.47
2018-09-06T04:53:30.028Z,100825.06
2018-09-06T04:55:58.061Z,100822.65
2018-09-06T04:58:26.360Z,100820.34
2018-09-06T05:00:54.336Z,100827.30
2018-09-06T05:03:22.364Z,100822.14
2018-09-06T05:05:50.444Z,100821.88
2018-09-06T05:08:18.467Z,100829.02
2018-09-06T05:10:46.648Z,100829.80
2018-09-06T05:13:14.884Z,100821.33
2018-09-06T05:15:42.924Z,100818.30
2018-09-06T05:18:10.957Z,100821.70
2018-09-06T05:20:38.987Z,100824.88
2018-09-06T05:23:07.160Z,100832.80
2018-09-06T05:25:35.384Z,100830.02
2018-09-06T05:28:03.421Z,100842.25
2018-09-06T05:30:31.553Z,100839.72
2018-09-06T05:32:59.768Z,100841.48
2018-09-06T05:35:27.990Z,100844.74
2018-09-06T05:37:56.019Z,100841.48
2018-09-06T05:40:24.048Z,100835.91
2018-09-06T05:42:52.088Z,100832.44
2018-09-06T05:45:20.112Z,100831.27
2018-09-06T05:47:53.412Z,100835.66
2018-09-06T05:50:21.435Z,100837.52
2018-09-06T05:52:50.977Z,100838.43
2018-09-06T05:55:19.148Z,100843.42
2018-09-06T05:57:47.181Z,100842.80
2018-09-06T06:00:20.628Z,100844.59
2018-09-06T06:02:50.679Z,100850.23
2018-09-06T06:05:18.874Z,100847.11
2018-09-06T06:07:58.164Z,100845.28
2018-09-06T06:10:26.184Z,100841.91
2018-09-06T06:12:54.677Z,100832.38
2018-09-06T06:15:22.942Z,100834.05
2018-09-06T06:17:51.107Z,100835.23
2018-09-06T06:20:19.383Z,100834.75
2018-09-06T06:22:47.581Z,100836.06
2018-09-06T06:25:15.700Z,100834.63
2018-09-06T06:27:43.721Z,100841.67
2018-09-06T06:30:11.740Z,100841.08
2018-09-06T06:32:40.164Z,100852.70
2018-09-06T06:35:08.204Z,100864.21
2018-09-06T06:37:36.331Z,100859.12
2018-09-06T06:40:05.020Z,100859.53
2018-09-06T06:42:33.056Z,100860.09
2018-09-06T06:45:01.117Z,100851.95
2018-09-06T06:47:29.180Z,100852.66
2018-09-06T06:49:57.308Z,100842.53
2018-09-06T06:52:25.368Z,100833.84
2018-09-06T06:54:53.388Z,100834.38
2018-09-06T06:57:21.527Z,100830.67
2018-09-06T06:59:49.508Z,100827.88
2018-09-06T07:02:19.036Z,100829.69
2018-09-06T07:04:47.069Z,100821.55
2018-09-06T07:07:15.164Z,100823.13
2018-09-06T07:09:43.267Z,100825.84
2018-09-06T07:12:11.496Z,100822.66
2018-09-06T07:14:39.529Z,100830.72
2018-09-06T07:17:07.618Z,100831.05
2018-09-06T07:19:35.681Z,100832.22
2018-09-06T07:22:03.714Z,100831.00
2018-09-06T07:24:31.989Z,100834.22
2018-09-06T07:27:00.228Z,100823.66
2018-09-06T07:29:28.280Z,100819.08
2018-09-06T07:31:56.332Z,100815.74
2018-09-06T07:34:24.412Z,100809.26
2018-09-06T07:36:52.428Z,100807.83
2018-09-06T07:39:20.572Z,100804.82
2018-09-06T07:41:48.830Z,100806.44
2018-09-06T07:44:16.902Z,100808.78
2018-09-06T07:46:45.097Z,100811.84
2018-09-06T07:49:13.108Z,100815.24
2018-09-06T07:51:41.212Z,100814.52
2018-09-06T07:54:09.275Z,100815.28
2018-09-06T07:56:37.528Z,100812.22
2018-09-06T07:59:06.340Z,100809.70
2018-09-06T08:01:34.387Z,100805.43
2018-09-06T08:04:02.511Z,100798.67
2018-09-06T08:06:30.844Z,100790.12
2018-09-06T08:08:58.948Z,100784.77
2018-09-06T08:11:27.119Z,100780.66
2018-09-06T08:13:55.136Z,100782.51
2018-09-06T08:16:23.361Z,100784.52
2018-09-06T08:18:51.418Z,100785.15
2018-09-06T08:21:19.601Z,100780.86
2018-09-06T08:23:47.624Z,100775.70
2018-09-06T08:26:15.781Z,100778.91
2018-09-06T08:28:43.800Z,100776.95
2018-09-06T08:31:11.889Z,100776.75
2018-09-06T08:33:39.893Z,100783.86
2018-09-06T08:36:07.944Z,100779.99
2018-09-06T08:38:35.964Z,100774.72
2018-09-06T08:41:04.200Z,100766.49
2018-09-06T08:43:32.218Z,100769.49
2018-09-06T08:46:00.325Z,100764.08
2018-09-06T08:48:28.431Z,100765.25
2018-09-06T08:50:56.764Z,100755.89
2018-09-06T08:53:24.784Z,100758.70
2018-09-06T08:55:53.033Z,100760.02
2018-09-06T08:58:21.108Z,100761.45
2018-09-06T09:00:54.473Z,100757.41
2018-09-06T09:03:22.662Z,100752.83
2018-09-06T09:05:50.686Z,100754.84
2018-09-06T09:08:19.105Z,100751.53
2018-09-06T09:10:47.180Z,100759.33
2018-09-06T09:13:15.214Z,100764.86
2018-09-06T09:15:43.339Z,100766.52
2018-09-06T09:18:11.388Z,100769.35
2018-09-06T09:20:39.405Z,100765.38
2018-09-06T09:23:07.524Z,100765.51
2018-09-06T09:25:35.596Z,100771.48
2018-09-06T09:28:03.636Z,100773.47
2018-09-06T09:30:32.053Z,100761.52
2018-09-06T09:33:00.064Z,100768.52
2018-09-06T09:35:28.083Z,100764.53
2018-09-06T09:37:56.259Z,100765.20
2018-09-06T09:40:24.284Z,100767.36
2018-09-06T09:42:52.398Z,100761.88
2018-09-06T09:45:20.765Z,100764.36
2018-09-06T09:47:48.883Z,100771.34
2018-09-06T09:52:44.128Z,100779.97
2018-09-06T09:55:12.448Z,100784.62
2018-09-06T09:57:40.472Z,100786.09
2018-09-06T10:00:08.693Z,100785.77
2018-09-06T10:02:42.056Z,100786.76
2018-09-06T10:05:15.408Z,100788.26
2018-09-06T10:07:48.677Z,100784.77
2018-09-06T10:10:16.700Z,100782.95
2018-09-06T10:12:44.731Z,100778.79
2018-09-06T10:15:12.752Z,100783.13
2018-09-06T10:17:41.350Z,100774.80
2018-09-06T10:20:09.472Z,100775.81
2018-09-06T10:22:37.508Z,100773.33
2018-09-06T10:25:06.298Z,100774.97
2018-09-06T10:27:34.296Z,100773.81
2018-09-06T10:30:02.512Z,100776.95
2018-09-06T10:32:30.680Z,100777.61
2018-09-06T10:34:58.785Z,100772.65
2018-09-06T10:37:26.812Z,100769.16
2018-09-06T10:39:54.944Z,100762.70
2018-09-06T10:42:22.960Z,100763.38
2018-09-06T10:44:51.092Z,100762.19
2018-09-06T10:47:19.144Z,100761.51
2018-09-06T10:49:47.208Z,100759.36
2018-09-06T10:52:15.244Z,100762.16
2018-09-06T10:54:43.256Z,100760.17
2018-09-06T10:57:11.432Z,100760.86
2018-09-06T10:59:39.456Z,100759.86
2018-09-06T11:02:07.606Z,100752.55
2018-09-06T11:04:35.638Z,100756.38
2018-09-06T11:07:03.710Z,100745.75
2018-09-06T11:09:31.785Z,100743.93
2018-09-06T11:11:59.858Z,100748.87
2018-09-06T11:14:27.879Z,100746.20
2018-09-06T11:16:55.904Z,100750.84
2018-09-06T11:19:24.168Z,100750.05
2018-09-06T11:21:52.346Z,100752.37
2018-09-06T11:24:20.212Z,100751.52
2018-09-06T11:26:48.567Z,100743.91
2018-09-06T11:29:16.665Z,100744.08
2018-09-06T11:31:44.678Z,100742.90
2018-09-06T11:34:12.713Z,100744.73
2018-09-06T11:36:41.073Z,100739.73
2018-09-06T11:39:09.932Z,100736.41
2018-09-06T11:41:38.177Z,100744.89
2018-09-06T11:46:52.918Z,100742.91
2018-09-06T11:49:20.990Z,100742.59
2018-09-06T11:51:49.261Z,100742.09
2018-09-06T11:54:17.336Z,100743.75
2018-09-06T11:56:45.380Z,100743.27
2018-09-06T11:59:13.771Z,100744.60
2018-09-06T12:01:41.909Z,100743.27
2018-09-06T12:04:10.164Z,100740.44
2018-09-06T12:06:38.601Z,100742.26
2018-09-06T12:09:06.792Z,100746.56
2018-09-06T12:11:35.235Z,100749.40
2018-09-06T12:14:03.276Z,100734.95
2018-09-06T12:16:31.320Z,100740.78
2018-09-06T12:19:00.228Z,100739.28
2018-09-06T12:21:28.256Z,100745.27
2018-09-06T12:23:56.519Z,100746.59
2018-09-06T12:26:24.512Z,100743.77
2018-09-06T12:28:52.527Z,100753.70
2018-09-06T12:31:20.560Z,100744.75
2018-09-06T12:33:48.642Z,100750.20
2018-09-06T12:36:16.677Z,100752.72
2018-09-06T12:38:44.789Z,100750.88
2018-09-06T12:41:12.880Z,100747.55
2018-09-06T12:43:41.211Z,100746.39
2018-09-06T12:46:09.283Z,100751.89
2018-09-06T12:48:37.364Z,100746.77
2018-09-06T12:51:05.416Z,100741.95
2018-09-06T12:53:33.440Z,100741.61
2018-09-06T12:56:01.472Z,100733.65
2018-09-06T12:58:29.488Z,100731.83
2018-09-06T13:00:57.744Z,100732.67
2018-09-06T13:03:25.991Z,100728.19
2018-09-06T13:05:53.994Z,100730.98
2018-09-06T13:08:22.248Z,100722.52
2018-09-06T13:10:50.305Z,100721.02
2018-09-06T13:13:18.537Z,100720.88
2018-09-06T13:15:46.564Z,100719.69
2018-09-06T13:18:14.587Z,100716.04
2018-09-06T13:20:42.604Z,100707.56
2018-09-06T13:23:10.896Z,100710.89
2018-09-06T13:25:38.976Z,100706.73
2018-09-06T13:28:07.012Z,100700.73
2018-09-06T13:30:35.034Z,100702.73
2018-09-06T13:33:03.216Z,100695.94
2018-09-06T13:35:31.256Z,100694.28
2018-09-06T13:37:59.269Z,100684.80
2018-09-06T13:40:27.307Z,100684.44
2018-09-06T13:42:55.340Z,100686.56
2018-09-06T13:45:23.356Z,100675.42
2018-09-06T13:47:51.392Z,100674.90
2018-09-06T13:50:19.420Z,100669.72
2018-09-06T13:52:47.436Z,100665.83
2018-09-06T13:55:15.467Z,100658.06
2018-09-06T13:57:43.495Z,100655.23
2018-09-06T14:00:11.513Z,100657.55
2018-09-06T14:02:39.538Z,100654.70
2018-09-06T14:05:07.860Z,100646.83
2018-09-06T14:07:36.229Z,100641.07
2018-09-06T14:10:04.980Z,100638.27
2018-09-06T14:12:33.001Z,100636.27
2018-09-06T14:15:01.032Z,100634.52
2018-09-06T14:17:29.124Z,100638.20
2018-09-06T14:19:57.159Z,100635.00
2018-09-06T14:22:25.195Z,100640.39
2018-09-06T14:24:53.222Z,100633.05
2018-09-06T14:27:21.406Z,100630.42
2018-09-06T14:29:49.426Z,100634.27
2018-09-06T14:32:17.461Z,100631.57
2018-09-06T14:34:45.492Z,100626.89
2018-09-06T14:37:13.536Z,100631.27
2018-09-06T14:39:41.548Z,100636.40
2018-09-06T14:42:09.575Z,100633.36
2018-09-06T14:44:37.599Z,100626.75
2018-09-06T14:47:05.681Z,100627.10
2018-09-06T14:49:33.721Z,100615.53
2018-09-06T14:52:01.827Z,100614.32
2018-09-06T14:54:29.881Z,100621.58
2018-09-06T14:56:57.908Z,100624.93
2018-09-06T14:59:25.961Z,100617.47
2018-09-06T15:01:53.978Z,100623.79
2018-09-06T15:04:22.005Z,100611.66
2018-09-06T15:06:50.029Z,100597.66
2018-09-06T15:09:18.060Z,100601.61
2018-09-06T15:11:46.076Z,100595.50
2018-09-06T15:14:14.096Z,100600.55
2018-09-06T15:16:42.284Z,100597.23
2018-09-06T15:19:10.360Z,100600.79
2018-09-06T15:21:38.535Z,100601.00
2018-09-06T15:26:33.781Z,100604.43
2018-09-06T15:29:01.801Z,100605.66
2018-09-06T15:31:29.859Z,100607.38
2018-09-06T15:33:57.995Z,100601.12
2018-09-06T15:36:26.016Z,100593.30
2018-09-06T15:38:54.165Z,100587.72
2018-09-06T15:41:22.272Z,100593.72
2018-09-06T15:43:50.293Z,100589.60
2018-09-06T15:46:18.335Z,100591.44
2018-09-06T15:48:48.412Z,100592.95
2018-09-06T15:51:16.424Z,100588.98
2018-09-06T15:53:44.448Z,100580.84
2018-09-06T15:56:12.769Z,100581.88
2018-09-06T15:58:40.801Z,100584.36
2018-09-06T16:01:09.093Z,100587.22
2018-09-06T16:03:37.140Z,100588.09
2018-09-06T16:06:05.158Z,100593.13
2018-09-06T16:08:33.180Z,100590.32
2018-09-06T16:11:01.207Z,100585.70
2018-09-06T16:13:29.259Z,100579.22
2018-09-06T16:15:57.304Z,100582.23
2018-09-06T16:18:25.398Z,100576.27
2018-09-06T16:20:53.436Z,100573.13
2018-09-06T16:23:21.453Z,100565.16
2018-09-06T16:25:49.504Z,100560.52
2018-09-06T16:28:17.697Z,100564.64
2018-09-06T16:30:45.748Z,100569.28
2018-09-06T16:33:13.780Z,100568.96
2018-09-06T16:35:41.985Z,100568.61
2018-09-06T16:38:09.979Z,100572.25
2018-09-06T16:40:38.004Z,100572.42
2018-09-06T16:43:06.136Z,100569.22
2018-09-06T16:45:34.160Z,100567.75
2018-09-06T16:48:02.195Z,100563.90
2018-09-06T16:50:30.391Z,100561.91
2018-09-06T16:52:58.416Z,100567.07
2018-09-06T16:55:26.464Z,100569.72
2018-09-06T16:57:54.492Z,100570.70
2018-09-06T17:00:22.533Z,100574.86
2018-09-06T17:02:50.568Z,100584.31
2018-09-06T17:05:18.600Z,100586.30
2018-09-06T17:07:46.640Z,100584.30
2018-09-06T17:10:14.885Z,100586.77
2018-09-06T17:12:42.912Z,100583.45
2018-09-06T17:15:11.252Z,100578.47
2018-09-06T17:17:39.319Z,100587.09
2018-09-06T17:20:08.066Z,100591.91
2018-09-06T17:22:36.155Z,100588.26
2018-09-06T17:25:04.250Z,100585.91
2018-09-06T17:27:32.309Z,100586.41
2018-09-06T17:30:00.387Z,100588.56
2018-09-06T17:32:28.457Z,100592.05
2018-09-06T17:34:56.464Z,100587.24
2018-09-06T17:37:24.490Z,100586.75
2018-09-06T17:39:52.709Z,100589.87
2018-09-06T17:42:20.888Z,100591.02
2018-09-06T17:44:49.099Z,100585.73
2018-09-06T17:47:17.131Z,100585.73
2018-09-06T17:49:45.159Z,100589.86
2018-09-06T17:52:13.192Z,100596.30
2018-09-06T17:54:41.235Z,100593.50
2018-09-06T17:57:09.486Z,100594.29
2018-09-06T17:59:37.667Z,100598.77
2018-09-06T18:02:05.980Z,100602.91
2018-09-06T18:04:33.995Z,100597.74
2018-09-06T18:07:02.025Z,100596.41
2018-09-06T18:09:30.128Z,100599.05
2018-09-06T18:11:58.156Z,100598.73
2018-09-06T18:14:26.282Z,100590.12
2018-09-06T18:16:54.292Z,100592.58
2018-09-06T18:19:22.308Z,100588.12
2018-09-06T18:21:50.332Z,100587.95
2018-09-06T18:24:18.490Z,100584.64
2018-09-06T18:26:46.509Z,100586.45
2018-09-06T18:29:15.000Z,100591.42
2018-09-06T18:31:43.079Z,100594.39
2018-09-06T18:34:11.103Z,100590.94
2018-09-06T18:36:39.115Z,100594.74
2018-09-06T18:39:07.252Z,100597.22
2018-09-06T18:41:35.371Z,100598.72
2018-09-06T18:44:03.432Z,100608.94
2018-09-06T18:46:32.129Z,100602.81
2018-09-06T18:49:00.157Z,100614.50
2018-09-06T18:51:28.260Z,100615.97
2018-09-06T18:53:56.276Z,100624.98
2018-09-06T18:56:24.416Z,100627.63
2018-09-06T18:58:52.452Z,100624.94
2018-09-06T19:01:20.492Z,100628.28
2018-09-06T19:03:48.539Z,100631.67
2018-09-06T19:06:16.555Z,100631.31
2018-09-06T19:08:44.764Z,100630.73
2018-09-06T19:11:12.784Z,100628.70
2018-09-06T19:13:40.804Z,100624.11
2018-09-06T19:16:09.255Z,100622.91
2018-09-06T19:18:37.283Z,100630.69
2018-09-06T19:21:06.341Z,100630.33
2018-09-06T19:23:34.721Z,100634.17
2018-09-06T19:26:02.813Z,100629.53
2018-09-06T19:28:30.820Z,100631.73
2018-09-06T19:30:58.929Z,100633.37
2018-09-06T19:33:26.950Z,100636.02
2018-09-06T19:35:55.067Z,100639.66
2018-09-06T19:38:23.097Z,100637.94
2018-09-06T19:40:51.120Z,100642.42
2018-09-06T19:43:19.148Z,100638.57
2018-09-06T19:45:47.168Z,100644.45
2018-09-06T19:48:15.200Z,100640.44
2018-09-06T19:50:43.244Z,100641.13
2018-09-06T19:53:11.898Z,100641.77
2018-09-06T19:55:39.929Z,100640.40
2018-09-06T19:58:08.020Z,100640.02
2018-09-06T20:00:36.145Z,100639.98
2018-09-06T20:03:05.025Z,100643.00
2018-09-06T20:05:33.048Z,100643.48
2018-09-06T20:08:01.130Z,100651.61
2018-09-06T20:10:29.272Z,100660.65
2018-09-06T20:12:57.322Z,100664.28
2018-09-06T20:15:25.379Z,100662.55
2018-09-06T20:17:53.829Z,100660.85
2018-09-06T20:20:22.008Z,100664.30
2018-09-06T20:22:50.047Z,100654.53
2018-09-06T20:25:18.339Z,100657.80
2018-09-06T20:27:46.512Z,100659.02
2018-09-06T20:30:14.797Z,100659.12
2018-09-06T20:32:42.857Z,100654.78
2018-09-06T20:35:11.240Z,100655.74
2018-09-06T20:37:39.255Z,100659.55
2018-09-06T20:40:07.291Z,100662.02
2018-09-06T20:42:35.377Z,100656.86
2018-09-06T20:45:03.828Z,100657.06
2018-09-06T20:47:31.849Z,100657.27
2018-09-06T20:49:59.903Z,100658.23
2018-09-06T20:52:28.168Z,100661.17
2018-09-06T20:54:56.408Z,100663.81
2018-09-06T20:57:24.508Z,100665.82
2018-09-06T20:59:52.560Z,100654.42
2018-09-06T21:02:21.567Z,100654.37
2018-09-06T21:04:50.057Z,100645.44
2018-09-06T21:07:18.240Z,100650.13
2018-09-06T21:09:46.527Z,100652.47
2018-09-06T21:12:14.608Z,100652.77
2018-09-06T21:14:42.635Z,100656.91
2018-09-06T21:17:10.673Z,100656.63
2018-09-06T21:19:38.853Z,100651.05
2018-09-06T21:22:06.864Z,100646.28
2018-09-06T21:24:34.889Z,100653.89
2018-09-06T21:27:03.311Z,100653.56
2018-09-06T21:29:31.332Z,100650.29
2018-09-06T21:31:59.460Z,100647.34
2018-09-06T21:34:27.619Z,100659.02
2018-09-06T21:36:55.625Z,100662.17
2018-09-06T21:39:24.300Z,100661.48
2018-09-06T21:41:52.328Z,100661.28
2018-09-06T21:44:20.436Z,100662.39
2018-09-06T21:46:48.455Z,100659.75
2018-09-06T21:49:16.587Z,100662.75
2018-09-06T21:51:44.853Z,100666.56
2018-09-06T21:54:13.062Z,100667.67
2018-09-06T21:56:41.388Z,100674.42
2018-09-06T21:59:09.399Z,100672.36
2018-09-06T22:01:37.589Z,100665.14
2018-09-06T22:04:07.947Z,100668.11
2018-09-06T22:06:36.990Z,100669.43
2018-09-06T22:09:07.948Z,100664.88
2018-09-06T22:11:35.983Z,100672.88
2018-09-06T22:14:04.004Z,100669.73
2018-09-06T22:16:32.648Z,100663.50
2018-09-06T22:19:01.099Z,100663.50
2018-09-06T22:21:29.184Z,100663.29
2018-09-06T22:23:57.247Z,100666.08
2018-09-06T22:26:25.267Z,100668.98
2018-09-06T22:28:53.289Z,100673.52
2018-09-06T22:31:21.475Z,100672.31
2018-09-06T22:33:49.544Z,100668.18
2018-09-06T22:36:17.607Z,100670.39
2018-09-06T22:38:45.676Z,100668.66
2018-09-06T22:41:13.978Z,100671.93
2018-09-06T22:43:42.120Z,100669.62
2018-09-06T22:46:10.148Z,100666.86
2018-09-06T22:48:38.188Z,100668.12
2018-09-06T22:51:06.492Z,100667.43
2018-09-06T22:53:34.892Z,100666.17
2018-09-06T22:56:03.379Z,100659.52
2018-09-06T22:58:31.439Z,100661.97
2018-09-06T23:00:59.481Z,100667.52
2018-09-06T23:03:32.977Z,100663.08
2018-09-06T23:06:01.072Z,100659.12
2018-09-06T23:08:29.291Z,100660.05
2018-09-06T23:10:57.320Z,100656.84
2018-09-06T23:13:25.440Z,100652.55
2018-09-06T23:15:53.796Z,100660.25
2018-09-06T23:18:21.836Z,100660.40
2018-09-06T23:20:50.117Z,100658.72
2018-09-06T23:23:18.152Z,100655.39
2018-09-06T23:25:46.184Z,100654.91
2018-09-06T23:28:14.462Z,100655.75
2018-09-06T23:30:42.928Z,100654.50
2018-09-06T23:33:11.091Z,100656.14
2018-09-06T23:35:39.587Z,100649.70
2018-09-06T23:38:07.691Z,100658.45
2018-09-06T23:40:40.001Z,100644.91
2018-09-06T23:43:08.496Z,100637.98
2018-09-06T23:45:36.520Z,100641.31
2018-09-06T23:48:04.864Z,100635.34
2018-09-06T23:50:32.910Z,100634.92
2018-09-06T23:53:01.012Z,100636.24
2018-09-06T23:55:29.043Z,100633.13
2018-09-06T23:57:57.083Z,100639.44
